Alpena, MI

9:24 AM EDT on August 29, 2014 (GMT -0400)
Alpena County Regional | Change Station
CLOSE
Current Station
Airport
Location: Alpena,
Elevation: 689 ft
Nearby Weather Stations

Elev 689 ft 45.07 °N, 83.56 °W | Updated 30 minutes ago

Mostly Cloudy
Mostly Cloudy
60 °F
Feels Like 60 °F
N
7
Wind Variable Wind from SSE

Today
High -- | Low -- °F
--% Chance of Precip.
Yesterday
High -- | Low -- °F
Precip. -- in
6:52 AM 8:16 PM
Waxing Crescent, 14% visible
Pressure 30.13 in
Visibility 10.0 miles
Clouds Mostly Cloudy 7500 ft
Dew Point 54 °F
Humidity 80%
Rainfall 0.00 in
Snow Depth Not available.
UV 1 out of 12
Pollen 7.20 out of 12
Ozone Good
PM2.5 Good
Flu Activity Not available.
METAR KAPN 291254Z AUTO 15006KT 10SM BKN075 16/12 A3012 RMK AO2 SLP201 T01560122

More Conditions Fewer Conditions

Pressure 30.13 in
Visibility 10.0 miles
Clouds Mostly Cloudy 7500 ft
Dew Point 54 °F
Humidity 80%
Rainfall 0.00 in
Snow Depth Not available.
UV 1 out of 12
Pollen 7.20 out of 12
Ozone Good
PM2.5 Good
Flu Activity Not available.
METAR KAPN 291254Z AUTO 15006KT 10SM BKN075 16/12 A3012 RMK AO2 SLP201 T01560122

More Conditions Fewer Conditions

Nowcast | as of 9:00 am EDT on August 29, 2014

At 10 am...cloudy. Scattered rain showers. Temperature 62. South winds 7 mph. At 12 PM...cloudy. Isolated rain showers. Temperature 67. South winds 9 mph. At 2 PM...cloudy. Scattered rain showers. Temperature 69. South winds 11 mph. At 4 PM...cloudy. Scattered rain showers. Temperature 70. Southeast winds 13 mph.

×

10-Day Weather Forecast

Almanac

Astronomy

Aug. 29, 2014 Rise Set
Actual Time 6:52 AM EDT 8:16 PM EDT
Civil Twilight 6:21 AM EDT 8:47 PM EDT
Nautical Twilight 5:44 AM EDT 9:23 PM EDT
Astronomical Twilight 5:05 AM EDT 10:03 PM EDT
Moon 10:52 AM EDT 10:00 PM EDT
Length of Visible Light 14h 25m
Length of Day
13h 24m
Tomorrow will be 3m 1s shorter.
Waxing Crescent, 14% of the Moon is Illuminated
Today
Waxing Crescent
Sep 2
First Quarter
Sep 8
Full
Sep 15
Last Quarter
Sep 24
New

Today's Extremes

State Highs State Lows

Community

WunderPhotos

Upload Photos

1,748,228 photos uploaded!

Nearby

Air Quality

  Air Quality AQ Index Pollutant
Yesterday Good
OZONE
Yesterday Good
PM2.5
Current Good
PM2.5
Current Good
OZONE
Friday Good
OZONE
Friday Good
PM2.5

Snow Depth

Station Depth Elevation
No new snow has been reported.

Earthquake Activity

City Distance Mag. Time & Date
No recent earthquake activity has been reported nearby.
Minimum magnitude displayed is 2.5.

Coastal Water Temperatures

Place Temperature
Alpena, MI 62.1 °F

Nearby Weather Stations